createdAt,value
2022-11-07T00:00:13.275Z,8.00
2022-11-07T00:02:41.758Z,8.00
2022-11-07T00:05:10.783Z,8.00
2022-11-07T00:07:39.184Z,8.00
2022-11-07T00:10:09.395Z,8.00
2022-11-07T00:12:37.739Z,8.00
2022-11-07T00:15:07.493Z,8.00
2022-11-07T00:17:35.694Z,8.10
2022-11-07T00:20:04.670Z,8.00
2022-11-07T00:22:32.854Z,8.00
2022-11-07T00:25:02.899Z,8.00
2022-11-07T00:27:33.968Z,8.00
2022-11-07T00:30:02.180Z,8.00
2022-11-07T00:32:33.150Z,8.00
2022-11-07T00:35:01.831Z,8.10
2022-11-07T00:37:30.105Z,8.00
2022-11-07T00:39:58.292Z,8.00
2022-11-07T00:42:26.863Z,8.00
2022-11-07T00:44:56.525Z,8.00
2022-11-07T00:47:24.785Z,8.00
2022-11-07T00:49:52.913Z,8.00
2022-11-07T00:52:21.348Z,8.10
2022-11-07T00:54:49.493Z,8.10
2022-11-07T00:57:20.129Z,8.00
2022-11-07T00:59:48.496Z,8.00
2022-11-07T01:02:18.195Z,8.00
2022-11-07T01:05:03.821Z,8.00
2022-11-07T01:07:35.504Z,8.10
2022-11-07T01:10:04.076Z,8.00
2022-11-07T01:12:34.069Z,8.00
2022-11-07T01:15:04.394Z,8.00
2022-11-07T01:17:34.416Z,8.10
2022-11-07T01:20:03.310Z,8.00
2022-11-07T01:22:31.910Z,8.10
2022-11-07T01:25:03.839Z,8.10
2022-11-07T01:27:32.410Z,8.10
2022-11-07T01:30:00.819Z,8.10
2022-11-07T01:32:29.082Z,8.10
2022-11-07T01:34:58.932Z,8.10
2022-11-07T01:37:27.244Z,8.20
2022-11-07T01:39:55.420Z,8.20
2022-11-07T01:42:23.647Z,8.20
2022-11-07T01:44:59.776Z,8.20
2022-11-07T01:47:33.199Z,8.20
2022-11-07T01:50:05.032Z,8.20
2022-11-07T01:52:35.518Z,8.20
2022-11-07T01:55:09.657Z,8.20
2022-11-07T01:57:42.480Z,8.10
2022-11-07T02:00:15.259Z,8.10
2022-11-07T02:02:45.696Z,8.10
2022-11-07T02:05:26.134Z,8.00
2022-11-07T02:07:55.049Z,8.00
2022-11-07T02:10:24.177Z,7.90
2022-11-07T02:12:53.085Z,7.80
2022-11-07T02:15:21.684Z,7.80
2022-11-07T02:17:50.576Z,7.80
2022-11-07T02:20:20.340Z,7.80
2022-11-07T02:22:54.224Z,7.90
2022-11-07T02:25:25.202Z,7.90
2022-11-07T02:27:56.789Z,7.90
2022-11-07T02:30:28.057Z,7.80
2022-11-07T02:32:56.430Z,7.90
2022-11-07T02:35:38.673Z,7.80
2022-11-07T02:38:12.661Z,7.80
2022-11-07T02:40:43.016Z,7.70
2022-11-07T02:43:13.666Z,7.80
2022-11-07T02:45:45.569Z,7.90
2022-11-07T02:48:13.854Z,7.90
2022-11-07T02:50:42.597Z,7.90
2022-11-07T02:53:11.181Z,7.90
2022-11-07T02:55:39.937Z,7.90
2022-11-07T02:58:09.661Z,7.80
2022-11-07T03:00:37.983Z,7.80
2022-11-07T03:03:06.302Z,7.80
2022-11-07T03:05:34.462Z,7.90
2022-11-07T03:08:02.872Z,7.80
2022-11-07T03:10:31.482Z,7.90
2022-11-07T03:12:59.863Z,7.90
2022-11-07T03:15:29.845Z,8.00
2022-11-07T03:18:00.529Z,7.90
2022-11-07T03:20:28.913Z,7.90
2022-11-07T03:22:57.172Z,7.90
2022-11-07T03:25:26.039Z,8.00
2022-11-07T03:27:54.276Z,8.00
2022-11-07T03:30:22.427Z,8.10
2022-11-07T03:32:54.311Z,8.20
2022-11-07T03:35:23.320Z,8.20
2022-11-07T03:37:51.690Z,8.30
2022-11-07T03:40:20.130Z,8.20
2022-11-07T03:42:48.469Z,8.20
2022-11-07T03:45:17.438Z,8.20
2022-11-07T03:47:47.114Z,8.10
2022-11-07T03:50:19.706Z,8.10
2022-11-07T03:52:49.276Z,8.10
2022-11-07T03:55:21.153Z,8.00
2022-11-07T03:57:49.631Z,8.00
2022-11-07T04:00:18.688Z,8.00
2022-11-07T04:02:47.224Z,8.00
2022-11-07T04:05:17.691Z,8.00
2022-11-07T04:07:46.081Z,7.90
2022-11-07T04:10:14.245Z,8.00
2022-11-07T04:12:59.813Z,7.90
2022-11-07T04:15:45.235Z,7.90
2022-11-07T04:18:13.485Z,7.90
2022-11-07T04:20:43.755Z,7.90
2022-11-07T04:23:15.053Z,8.00
2022-11-07T04:26:01.180Z,8.00
2022-11-07T04:28:29.907Z,8.00
2022-11-07T04:30:58.574Z,8.10
2022-11-07T04:33:26.782Z,8.20
2022-11-07T04:35:56.345Z,8.30
2022-11-07T04:38:24.564Z,8.30
2022-11-07T04:40:56.559Z,8.30
2022-11-07T04:43:28.565Z,8.30
2022-11-07T04:45:56.900Z,8.30
2022-11-07T04:48:25.605Z,8.30
2022-11-07T04:50:55.124Z,8.30
2022-11-07T04:53:23.419Z,8.30
2022-11-07T04:55:51.605Z,8.30
2022-11-07T04:58:19.860Z,8.20
2022-11-07T05:00:48.140Z,8.20
2022-11-07T05:03:17.186Z,8.20
2022-11-07T05:05:45.869Z,8.30
2022-11-07T05:08:15.705Z,8.30
2022-11-07T05:10:44.497Z,8.30
2022-11-07T05:13:12.953Z,8.40
2022-11-07T05:15:41.589Z,8.40
2022-11-07T05:18:11.440Z,8.50
2022-11-07T05:20:40.592Z,8.50
2022-11-07T05:23:16.084Z,8.60
2022-11-07T05:25:48.668Z,8.60
2022-11-07T05:28:27.998Z,8.50
2022-11-07T05:31:00.974Z,8.60
2022-11-07T05:33:29.947Z,8.60
2022-11-07T05:35:58.666Z,8.60
2022-11-07T05:38:26.907Z,8.60
2022-11-07T05:40:56.494Z,8.60
2022-11-07T05:43:24.691Z,8.60
2022-11-07T05:45:53.134Z,8.60
2022-11-07T05:48:21.411Z,8.60
2022-11-07T05:50:49.607Z,8.50
2022-11-07T05:53:20.887Z,8.50
2022-11-07T05:55:49.531Z,8.50
2022-11-07T05:58:20.018Z,8.40
2022-11-07T06:00:49.559Z,8.40
2022-11-07T06:03:20.336Z,8.40
2022-11-07T06:05:49.089Z,8.40
2022-11-07T06:08:17.736Z,8.40
2022-11-07T06:10:46.449Z,8.40
2022-11-07T06:13:17.337Z,8.50
2022-11-07T06:15:47.849Z,8.50
2022-11-07T06:18:18.766Z,8.40
2022-11-07T06:20:47.972Z,8.50
2022-11-07T06:23:16.711Z,8.40
2022-11-07T06:25:45.597Z,8.40
2022-11-07T06:28:15.379Z,8.50
2022-11-07T06:30:43.892Z,8.50
2022-11-07T06:33:16.285Z,8.50
2022-11-07T06:35:45.112Z,8.40
2022-11-07T06:38:15.240Z,8.40
2022-11-07T06:40:44.279Z,8.40
2022-11-07T06:43:15.452Z,8.50
2022-11-07T06:45:45.938Z,8.40
2022-11-07T06:48:15.925Z,8.50
2022-11-07T06:50:45.085Z,8.40
2022-11-07T06:53:16.394Z,8.50
2022-11-07T06:55:44.926Z,8.40
2022-11-07T06:58:13.155Z,8.50
2022-11-07T07:00:42.191Z,8.50
2022-11-07T07:03:12.455Z,8.50
2022-11-07T07:05:42.858Z,8.50
2022-11-07T07:08:12.859Z,8.60
2022-11-07T07:10:43.760Z,8.60
2022-11-07T07:13:12.734Z,8.60
2022-11-07T07:15:51.612Z,8.60
2022-11-07T07:18:23.875Z,8.70
2022-11-07T07:20:55.523Z,8.70
2022-11-07T07:23:24.557Z,8.70
2022-11-07T07:25:52.941Z,8.80
2022-11-07T07:28:21.196Z,8.80
2022-11-07T07:30:52.042Z,8.80
2022-11-07T07:33:20.942Z,8.90
2022-11-07T07:35:51.118Z,8.90
2022-11-07T07:38:20.829Z,8.90
2022-11-07T07:40:49.026Z,9.00
2022-11-07T07:43:17.768Z,9.00
2022-11-07T07:45:48.609Z,9.10
2022-11-07T07:48:17.907Z,9.10
2022-11-07T07:50:49.881Z,9.10
2022-11-07T07:53:19.028Z,9.10
2022-11-07T07:55:52.120Z,9.20
2022-11-07T07:58:20.900Z,9.20
2022-11-07T08:00:53.175Z,9.20
2022-11-07T08:03:21.479Z,9.30
2022-11-07T08:05:54.993Z,9.30
2022-11-07T08:08:23.580Z,9.30
2022-11-07T08:10:54.670Z,9.30
2022-11-07T08:13:23.811Z,9.40
2022-11-07T08:15:53.021Z,9.40
2022-11-07T08:18:23.680Z,9.40
2022-11-07T08:20:52.555Z,9.50
2022-11-07T08:23:22.117Z,9.60
2022-11-07T08:25:53.338Z,9.70
2022-11-07T08:28:23.989Z,9.70
2022-11-07T08:30:59.693Z,9.80
2022-11-07T08:33:28.731Z,9.90
2022-11-07T08:36:00.449Z,9.90
2022-11-07T08:38:29.491Z,10.00
2022-11-07T08:40:59.890Z,10.10
2022-11-07T08:43:29.124Z,10.10
2022-11-07T08:45:59.220Z,10.10
2022-11-07T08:48:28.839Z,10.10
2022-11-07T08:50:59.130Z,10.10
2022-11-07T08:53:28.319Z,10.10
2022-11-07T08:56:04.051Z,10.20
2022-11-07T08:58:32.937Z,10.30
2022-11-07T09:01:02.147Z,10.40
2022-11-07T09:03:45.091Z,10.50
2022-11-07T09:06:15.527Z,10.50
2022-11-07T09:08:44.165Z,10.50
2022-11-07T09:11:15.776Z,10.40
2022-11-07T09:13:44.576Z,10.50
2022-11-07T09:16:12.873Z,10.50
2022-11-07T09:18:41.532Z,10.60
2022-11-07T09:21:10.049Z,10.60
2022-11-07T09:23:40.067Z,10.60
2022-11-07T09:26:12.526Z,10.60
2022-11-07T09:28:45.636Z,10.50
2022-11-07T09:31:16.611Z,10.60
2022-11-07T09:33:45.845Z,10.60
2022-11-07T09:36:14.578Z,10.60
2022-11-07T09:38:43.946Z,10.70
2022-11-07T09:41:27.108Z,10.70
2022-11-07T09:44:13.558Z,10.80
2022-11-07T09:46:56.764Z,10.70
2022-11-07T09:49:30.029Z,10.70
2022-11-07T09:52:03.712Z,10.70
2022-11-07T09:54:37.945Z,10.70
2022-11-07T09:57:11.142Z,10.70
2022-11-07T09:59:47.305Z,10.80
2022-11-07T10:02:18.530Z,10.90
2022-11-07T10:04:48.616Z,11.10
2022-11-07T10:07:26.310Z,11.20
2022-11-07T10:10:03.288Z,11.40
2022-11-07T10:12:45.151Z,11.50
2022-11-07T10:15:21.795Z,11.60
2022-11-07T10:18:00.281Z,11.80
2022-11-07T10:20:43.675Z,11.90
2022-11-07T10:23:30.807Z,11.90
2022-11-07T10:26:07.684Z,11.80
2022-11-07T10:28:42.817Z,11.70
2022-11-07T10:31:14.064Z,11.70
2022-11-07T10:33:48.795Z,11.70
2022-11-07T10:36:23.172Z,11.70
2022-11-07T10:38:53.159Z,11.80
2022-11-07T10:41:24.147Z,11.80
2022-11-07T10:43:56.745Z,11.80
2022-11-07T10:46:29.958Z,11.70
2022-11-07T10:49:00.398Z,11.80
2022-11-07T10:51:36.125Z,11.80
2022-11-07T10:54:04.685Z,11.80
2022-11-07T10:56:44.257Z,11.80
2022-11-07T10:59:14.400Z,11.80
2022-11-07T11:01:51.649Z,12.20
2022-11-07T11:04:24.609Z,12.50
2022-11-07T11:07:01.808Z,12.50
2022-11-07T11:09:32.266Z,12.40
2022-11-07T11:12:05.045Z,12.30
2022-11-07T11:14:33.579Z,12.20
2022-11-07T11:17:03.851Z,12.00
2022-11-07T11:19:41.994Z,12.00
2022-11-07T11:22:17.507Z,11.90
2022-11-07T11:24:46.073Z,11.90
2022-11-07T11:27:16.535Z,11.80
2022-11-07T11:29:51.958Z,11.80
2022-11-07T11:32:26.622Z,11.80
2022-11-07T11:35:06.686Z,11.70
2022-11-07T11:37:38.677Z,11.70
2022-11-07T11:40:16.553Z,11.80
2022-11-07T11:42:56.172Z,11.80
2022-11-07T11:45:34.364Z,11.80
2022-11-07T11:48:13.457Z,11.80
2022-11-07T11:50:47.141Z,11.80
2022-11-07T11:53:19.390Z,11.80
2022-11-07T11:55:57.962Z,11.90
2022-11-07T11:58:42.173Z,11.90
2022-11-07T12:01:23.577Z,11.80
2022-11-07T12:04:11.753Z,11.80
2022-11-07T12:06:41.500Z,11.80
2022-11-07T12:09:34.195Z,11.80
2022-11-07T12:12:12.712Z,11.80
2022-11-07T12:15:23.547Z,11.80
2022-11-07T12:17:57.988Z,11.90
2022-11-07T12:20:32.672Z,11.90
2022-11-07T12:23:31.817Z,12.00
2022-11-07T12:26:06.053Z,12.10
2022-11-07T12:28:44.499Z,12.20
2022-11-07T12:31:25.880Z,12.20
2022-11-07T12:34:01.974Z,12.20
2022-11-07T12:36:50.532Z,12.20
2022-11-07T12:39:39.768Z,12.20
2022-11-07T12:42:09.875Z,12.10
2022-11-07T12:44:53.028Z,12.00
2022-11-07T12:47:41.051Z,12.00
2022-11-07T12:50:22.115Z,12.10
2022-11-07T12:53:02.286Z,12.10
2022-11-07T12:55:38.134Z,12.10
2022-11-07T12:58:15.557Z,12.10
2022-11-07T13:00:44.955Z,12.00
2022-11-07T13:03:33.057Z,12.10
2022-11-07T13:06:13.680Z,12.10
2022-11-07T13:08:51.991Z,12.10
2022-11-07T13:11:28.338Z,12.10
2022-11-07T13:14:23.741Z,12.00
2022-11-07T13:17:04.084Z,12.00
2022-11-07T13:19:33.978Z,12.00
2022-11-07T13:22:04.782Z,11.90
2022-11-07T13:24:38.961Z,11.90
2022-11-07T13:27:21.743Z,11.90
2022-11-07T13:29:50.345Z,11.90
2022-11-07T13:32:18.705Z,12.00
2022-11-07T13:34:50.662Z,11.90
2022-11-07T13:37:23.655Z,11.90
2022-11-07T13:39:57.770Z,12.00
2022-11-07T13:42:30.669Z,12.00
2022-11-07T13:45:06.456Z,11.90
2022-11-07T13:47:40.340Z,11.80
2022-11-07T13:50:18.999Z,11.80
2022-11-07T13:52:55.465Z,11.80
2022-11-07T13:55:29.513Z,11.70
2022-11-07T13:58:03.416Z,11.80
2022-11-07T14:00:34.804Z,11.80
2022-11-07T14:03:03.426Z,11.90
2022-11-07T14:05:35.333Z,11.90
2022-11-07T14:08:07.335Z,12.00
2022-11-07T14:10:44.557Z,12.00
2022-11-07T14:13:15.805Z,12.00
2022-11-07T14:15:48.544Z,12.00
2022-11-07T14:18:19.293Z,12.10
2022-11-07T14:20:49.233Z,12.00
2022-11-07T14:23:20.702Z,12.10
2022-11-07T14:25:58.237Z,12.10
2022-11-07T14:28:34.417Z,12.10
2022-11-07T14:31:05.294Z,12.10
2022-11-07T14:33:34.329Z,12.10
2022-11-07T14:36:06.722Z,12.00
2022-11-07T14:38:34.942Z,12.00
2022-11-07T14:41:04.738Z,11.90
2022-11-07T14:43:34.570Z,11.80
2022-11-07T14:46:12.265Z,11.80
2022-11-07T14:48:43.574Z,11.80
2022-11-07T14:51:14.738Z,11.70
2022-11-07T14:53:52.218Z,11.70
2022-11-07T14:56:25.626Z,11.80
2022-11-07T14:58:54.910Z,11.70
2022-11-07T15:01:29.624Z,11.70
2022-11-07T15:04:01.374Z,11.60
2022-11-07T15:06:34.106Z,11.60
2022-11-07T15:09:05.446Z,11.60
2022-11-07T15:11:36.638Z,11.60
2022-11-07T15:14:07.392Z,11.60
2022-11-07T15:16:38.971Z,11.70
2022-11-07T15:19:11.280Z,11.70
2022-11-07T15:21:52.273Z,11.70
2022-11-07T15:24:43.284Z,11.60
2022-11-07T15:27:22.428Z,11.60
2022-11-07T15:29:53.172Z,11.60
2022-11-07T15:32:26.558Z,11.60
2022-11-07T15:35:30.117Z,11.70
2022-11-07T15:37:53.938Z,11.70
2022-11-07T15:40:23.776Z,11.70
2022-11-07T15:42:53.554Z,11.70
2022-11-07T15:45:22.535Z,11.70
2022-11-07T15:47:52.259Z,11.70
2022-11-07T15:50:24.421Z,11.60
2022-11-07T15:52:54.878Z,11.70
2022-11-07T15:55:24.873Z,11.80
2022-11-07T15:57:55.585Z,11.70
2022-11-07T16:00:29.717Z,11.70
2022-11-07T16:02:58.601Z,11.70
2022-11-07T16:05:26.866Z,11.70
2022-11-07T16:07:55.000Z,11.60
2022-11-07T16:10:25.922Z,11.70
2022-11-07T16:12:57.285Z,11.60
2022-11-07T16:15:28.696Z,11.60
2022-11-07T16:17:56.939Z,11.70
2022-11-07T16:20:25.270Z,11.70
2022-11-07T16:22:53.516Z,11.70
2022-11-07T16:25:26.087Z,11.60
2022-11-07T16:28:00.322Z,11.60
2022-11-07T16:30:28.546Z,11.60
2022-11-07T16:32:56.838Z,11.60
2022-11-07T16:35:25.229Z,11.60
2022-11-07T16:37:53.353Z,11.60
2022-11-07T16:40:21.617Z,11.60
2022-11-07T16:42:49.864Z,11.70
2022-11-07T16:45:20.536Z,11.60
2022-11-07T16:47:49.630Z,11.60
2022-11-07T16:50:18.994Z,11.60
2022-11-07T16:52:47.151Z,11.60
2022-11-07T16:55:17.100Z,11.60
2022-11-07T16:57:45.657Z,11.60
2022-11-07T17:00:21.008Z,11.70
2022-11-07T17:02:49.704Z,11.60
2022-11-07T17:05:18.585Z,11.70
2022-11-07T17:07:46.842Z,11.60
2022-11-07T17:10:17.989Z,11.60
2022-11-07T17:12:46.350Z,11.60
2022-11-07T17:15:15.450Z,11.60
2022-11-07T17:17:45.704Z,11.60
2022-11-07T17:20:49.502Z,11.50
2022-11-07T17:23:10.844Z,11.50
2022-11-07T17:25:39.629Z,11.50
2022-11-07T17:28:08.689Z,11.50
2022-11-07T17:30:36.873Z,11.50
2022-11-07T17:33:06.445Z,11.60
2022-11-07T17:35:35.124Z,11.60
2022-11-07T17:38:03.751Z,11.50
2022-11-07T17:40:34.569Z,11.50
2022-11-07T17:43:03.571Z,11.50
2022-11-07T17:45:31.855Z,11.50
2022-11-07T17:48:00.318Z,11.50
2022-11-07T17:50:30.043Z,11.40
2022-11-07T17:52:58.461Z,11.40
2022-11-07T17:55:26.698Z,11.40
2022-11-07T17:57:56.453Z,11.40
2022-11-07T18:00:27.700Z,11.30
2022-11-07T18:02:56.092Z,11.40
2022-11-07T18:05:31.781Z,11.40
2022-11-07T18:08:03.257Z,11.40
2022-11-07T18:10:31.595Z,11.40
2022-11-07T18:12:59.791Z,11.40
2022-11-07T18:15:28.442Z,11.40
2022-11-07T18:17:56.752Z,11.40
2022-11-07T18:20:26.002Z,11.40
2022-11-07T18:22:54.608Z,11.40
2022-11-07T18:25:24.350Z,11.40
2022-11-07T18:27:52.689Z,11.40
2022-11-07T18:30:20.912Z,11.40
2022-11-07T18:32:53.161Z,11.30
2022-11-07T18:35:21.518Z,11.30
2022-11-07T18:37:50.076Z,11.30
2022-11-07T18:40:18.447Z,11.30
2022-11-07T18:42:48.244Z,11.30
2022-11-07T18:45:17.127Z,11.30
2022-11-07T18:47:45.345Z,11.40
2022-11-07T18:50:13.769Z,11.40
2022-11-07T18:52:42.287Z,11.40
2022-11-07T18:55:11.124Z,11.40
2022-11-07T18:57:39.459Z,11.40
2022-11-07T19:00:13.688Z,11.40
2022-11-07T19:02:42.219Z,11.40
2022-11-07T19:05:11.065Z,11.40
2022-11-07T19:07:42.853Z,11.40
2022-11-07T19:10:12.038Z,11.30
2022-11-07T19:12:40.690Z,11.30
2022-11-07T19:15:12.384Z,11.30
2022-11-07T19:17:41.156Z,11.40
2022-11-07T19:20:10.956Z,11.40
2022-11-07T19:22:39.431Z,11.40
2022-11-07T19:25:08.390Z,11.40
2022-11-07T19:27:37.128Z,11.40
2022-11-07T19:30:06.567Z,11.30
2022-11-07T19:32:36.535Z,11.30
2022-11-07T19:35:05.667Z,11.30
2022-11-07T19:37:34.159Z,11.30
2022-11-07T19:40:02.564Z,11.30
2022-11-07T19:42:31.112Z,11.30
2022-11-07T19:44:59.356Z,11.30
2022-11-07T19:47:27.533Z,11.30
2022-11-07T19:49:57.167Z,11.30
2022-11-07T19:52:25.600Z,11.30
2022-11-07T19:54:54.078Z,11.30
2022-11-07T19:57:22.459Z,11.30
2022-11-07T19:59:50.872Z,11.30
2022-11-07T20:02:32.360Z,11.20
2022-11-07T20:05:03.692Z,11.30
2022-11-07T20:07:32.614Z,11.20
2022-11-07T20:10:01.342Z,11.20
2022-11-07T20:12:29.736Z,11.20
2022-11-07T20:14:58.232Z,11.20
2022-11-07T20:17:26.621Z,11.20
2022-11-07T20:19:56.147Z,11.20
2022-11-07T20:22:27.532Z,11.20
2022-11-07T20:24:56.224Z,11.20
2022-11-07T20:27:24.706Z,11.10
2022-11-07T20:29:54.216Z,11.10
2022-11-07T20:32:22.354Z,11.00
2022-11-07T20:34:53.892Z,11.10
2022-11-07T20:37:23.415Z,11.00
2022-11-07T20:39:53.054Z,11.00
2022-11-07T20:42:21.289Z,10.90
2022-11-07T20:44:52.385Z,11.00
2022-11-07T20:47:21.630Z,11.00
2022-11-07T20:49:49.980Z,11.00
2022-11-07T20:52:18.522Z,11.00
2022-11-07T20:54:46.935Z,11.00
2022-11-07T20:57:16.710Z,11.00
2022-11-07T20:59:45.416Z,11.00
2022-11-07T21:02:14.267Z,11.00
2022-11-07T21:05:03.133Z,11.00
2022-11-07T21:07:31.585Z,11.00
2022-11-07T21:10:00.200Z,11.00
2022-11-07T21:12:29.937Z,11.00
2022-11-07T21:15:00.301Z,11.00
2022-11-07T21:17:28.783Z,11.00
2022-11-07T21:19:57.067Z,11.00
2022-11-07T21:22:29.353Z,11.10
2022-11-07T21:24:58.606Z,11.00
2022-11-07T21:27:29.884Z,10.90
2022-11-07T21:29:58.463Z,10.90
2022-11-07T21:32:27.002Z,10.80
2022-11-07T21:34:55.652Z,10.80
2022-11-07T21:37:24.813Z,10.80
2022-11-07T21:39:53.456Z,10.80
2022-11-07T21:42:21.649Z,10.80
2022-11-07T21:44:51.269Z,10.80
2022-11-07T21:47:19.511Z,10.80
2022-11-07T21:49:49.759Z,10.80
2022-11-07T21:52:18.431Z,10.70
2022-11-07T21:54:47.113Z,10.70
2022-11-07T21:57:15.920Z,10.70
2022-11-07T21:59:46.237Z,10.70
2022-11-07T22:02:15.994Z,10.70
2022-11-07T22:04:44.796Z,10.70
2022-11-07T22:07:12.982Z,10.80
2022-11-07T22:09:41.204Z,10.70
2022-11-07T22:12:09.939Z,10.70
2022-11-07T22:14:38.597Z,10.60
2022-11-07T22:17:06.742Z,10.60
2022-11-07T22:19:36.633Z,10.60
2022-11-07T22:22:05.076Z,10.60
2022-11-07T22:24:33.960Z,10.60
2022-11-07T22:27:03.074Z,10.60
2022-11-07T22:29:31.491Z,10.50
2022-11-07T22:32:01.150Z,10.40
2022-11-07T22:34:30.676Z,10.50
2022-11-07T22:37:00.967Z,10.50
2022-11-07T22:39:29.846Z,10.50
2022-11-07T22:42:00.523Z,10.50
2022-11-07T22:44:29.292Z,10.60
2022-11-07T22:46:57.811Z,10.60
2022-11-07T22:49:26.313Z,10.60
2022-11-07T22:51:54.819Z,10.60
2022-11-07T22:54:24.920Z,10.60
2022-11-07T22:56:53.077Z,10.60
2022-11-07T22:59:21.305Z,10.60
2022-11-07T23:01:49.678Z,10.60
2022-11-07T23:04:18.737Z,10.50
2022-11-07T23:06:46.969Z,10.60
2022-11-07T23:09:15.756Z,10.60
2022-11-07T23:11:47.593Z,10.60
2022-11-07T23:14:19.024Z,10.60
2022-11-07T23:16:49.476Z,10.50
2022-11-07T23:19:19.684Z,10.60
2022-11-07T23:21:48.952Z,10.70
2022-11-07T23:24:17.359Z,10.70
2022-11-07T23:26:48.493Z,10.60
2022-11-07T23:29:18.284Z,10.60
2022-11-07T23:31:48.191Z,10.60
2022-11-07T23:34:16.878Z,10.60
2022-11-07T23:36:45.409Z,10.60
2022-11-07T23:39:16.587Z,10.70
2022-11-07T23:41:46.767Z,10.70
2022-11-07T23:44:16.115Z,10.70
2022-11-07T23:47:02.431Z,10.70
2022-11-07T23:49:48.368Z,10.60
2022-11-07T23:52:17.238Z,10.60
2022-11-07T23:55:02.752Z,10.70
2022-11-07T23:57:34.636Z,10.60
